Time,TemperatureF,DewpointF,PressureIn,WindDirection,WindDirectionDegrees,WindSpeedMPH,WindSpeedGustMPH,Humidity,HourlyPrecipIn,Conditions,Clouds,dailyrainin,SoftwareType,DateUTC
2013-05-28 00:02:00,56.1,54.7,30.05,SSW,197,9.0,11.0,95,0.00,,,0.02,meteohub,2013-05-28 07:02:00,
2013-05-28 00:07:00,56.1,54.5,30.05,WSW,244,9.0,11.0,94,0.00,,,0.02,meteohub,2013-05-28 07:07:00,
2013-05-28 00:12:00,56.1,54.5,30.05,North,359,8.0,11.0,94,0.00,,,0.02,meteohub,2013-05-28 07:12:00,
2013-05-28 00:17:00,56.1,54.5,30.05,SW,235,7.0,11.0,94,0.00,,,0.02,meteohub,2013-05-28 07:17:00,
2013-05-28 00:22:00,56.1,54.5,30.05,North,359,6.0,11.0,94,0.00,,,0.02,meteohub,2013-05-28 07:22:00,
2013-05-28 00:27:00,56.1,54.5,30.05,SSW,201,7.0,11.0,94,0.00,,,0.02,meteohub,2013-05-28 07:27:00,
2013-05-28 00:32:00,56.1,54.5,30.05,SSW,207,8.0,10.0,94,0.00,,,0.02,meteohub,2013-05-28 07:32:00,
2013-05-28 00:37:00,55.9,54.3,30.05,South,187,9.0,10.0,94,0.00,,,0.02,meteohub,2013-05-28 07:37:00,
2013-05-28 00:42:00,56.1,54.5,30.05,SSW,210,4.0,12.0,94,0.00,,,0.02,meteohub,2013-05-28 07:42:00,
2013-05-28 00:47:00,55.9,54.5,30.04,South,190,5.0,12.0,95,0.00,,,0.02,meteohub,2013-05-28 07:47:00,
2013-05-28 00:52:00,55.9,54.5,30.04,North,359,5.0,10.0,95,0.00,,,0.02,meteohub,2013-05-28 07:52:00,
2013-05-28 00:57:00,55.9,54.5,30.04,SSW,201,5.0,10.0,95,0.00,,,0.02,meteohub,2013-05-28 07:57:00,
2013-05-28 01:02:00,55.8,54.3,30.04,SW,227,5.0,11.0,95,0.00,,,0.02,meteohub,2013-05-28 08:02:00,
2013-05-28 01:07:00,55.8,54.3,30.04,SW,214,7.0,11.0,95,0.00,,,0.02,meteohub,2013-05-28 08:07:00,
2013-05-28 01:12:00,55.8,54.3,30.03,SW,233,9.0,11.0,95,0.00,,,0.02,meteohub,2013-05-28 08:12:00,
2013-05-28 01:17:00,55.8,54.3,30.03,WSW,244,8.0,11.0,95,0.00,,,0.02,meteohub,2013-05-28 08:17:00,
2013-05-28 01:22:00,55.8,54.3,30.03,North,359,7.0,11.0,95,0.00,,,0.02,meteohub,2013-05-28 08:22:00,
2013-05-28 01:27:00,55.8,54.3,30.03,WSW,243,8.0,10.0,95,0.00,,,0.02,meteohub,2013-05-28 08:27:00,
2013-05-28 01:32:00,55.6,54.1,30.04,WSW,237,5.0,10.0,95,0.00,,,0.02,meteohub,2013-05-28 08:32:00,
2013-05-28 01:37:00,55.6,54.1,30.04,WSW,247,9.0,11.0,95,0.00,,,0.02,meteohub,2013-05-28 08:37:00,
2013-05-28 01:42:00,55.6,54.1,30.04,North,359,5.0,13.0,95,0.00,,,0.02,meteohub,2013-05-28 08:42:00,
2013-05-28 01:47:00,55.4,54.0,30.03,WSW,246,10.0,13.0,95,0.00,,,0.02,meteohub,2013-05-28 08:47:00,
2013-05-28 01:52:00,55.6,54.1,30.04,SW,226,7.0,13.0,95,0.00,,,0.02,meteohub,2013-05-28 08:52:00,
2013-05-28 01:57:00,55.4,54.0,30.04,SW,222,9.0,13.0,95,0.00,,,0.02,meteohub,2013-05-28 08:57:00,
2013-05-28 02:02:00,55.4,54.0,30.03,SW,233,6.0,13.0,95,0.00,,,0.02,meteohub,2013-05-28 09:02:00,
2013-05-28 02:07:00,55.4,54.0,30.04,WSW,249,9.0,13.0,95,0.00,,,0.02,meteohub,2013-05-28 09:07:00,
2013-05-28 02:12:00,55.4,54.0,30.03,North,359,6.0,13.0,95,0.00,,,0.02,meteohub,2013-05-28 09:12:00,
2013-05-28 02:17:00,55.2,53.8,30.04,WSW,252,9.0,11.0,95,0.00,,,0.02,meteohub,2013-05-28 09:17:00,
2013-05-28 02:22:00,55.2,53.8,30.03,SW,226,5.0,11.0,95,0.00,,,0.02,meteohub,2013-05-28 09:22:00,
2013-05-28 02:27:00,55.2,54.1,30.03,WSW,245,9.0,11.0,96,0.00,,,0.02,meteohub,2013-05-28 09:27:00,
2013-05-28 02:32:00,55.2,53.8,30.04,SW,231,2.0,11.0,95,0.00,,,0.02,meteohub,2013-05-28 09:32:00,
2013-05-28 02:37:00,55.0,53.6,30.03,SW,224,2.0,10.0,95,0.00,,,0.02,meteohub,2013-05-28 09:37:00,
2013-05-28 02:42:00,55.0,53.6,30.03,North,359,3.0,10.0,95,0.00,,,0.02,meteohub,2013-05-28 09:42:00,
2013-05-28 02:47:00,55.0,53.6,30.03,North,359,3.0,7.0,95,0.00,,,0.02,meteohub,2013-05-28 09:47:00,
2013-05-28 02:53:00,55.0,53.6,30.03,North,359,4.0,8.0,95,0.00,,,0.02,meteohub,2013-05-28 09:53:00,
2013-05-28 02:58:00,55.0,54.0,30.04,SW,236,3.0,8.0,96,0.00,,,0.02,meteohub,2013-05-28 09:58:00,
2013-05-28 03:03:00,55.0,54.0,30.04,SW,231,4.0,8.0,96,0.00,,,0.02,meteohub,2013-05-28 10:03:00,
2013-05-28 03:08:00,55.0,54.0,30.04,SW,236,1.0,6.0,96,0.00,,,0.02,meteohub,2013-05-28 10:08:00,
2013-05-28 03:13:00,55.0,54.0,30.04,SW,233,1.0,6.0,96,0.00,,,0.02,meteohub,2013-05-28 10:13:00,
2013-05-28 03:18:00,55.0,54.0,30.03,North,359,3.0,6.0,96,0.01,,,0.03,meteohub,2013-05-28 10:18:00,
2013-05-28 03:23:00,55.0,54.0,30.03,SW,233,0.0,5.0,96,0.01,,,0.03,meteohub,2013-05-28 10:23:00,
2013-05-28 03:28:00,55.2,54.1,30.02,SW,231,3.0,5.0,96,0.01,,,0.03,meteohub,2013-05-28 10:28:00,
2013-05-28 03:33:00,55.0,54.0,30.02,North,359,5.0,5.0,96,0.01,,,0.03,meteohub,2013-05-28 10:33:00,
2013-05-28 03:38:00,54.9,53.8,30.02,SW,225,4.0,5.0,96,0.01,,,0.03,meteohub,2013-05-28 10:38:00,
2013-05-28 03:43:00,55.0,54.0,30.02,SW,224,1.0,5.0,96,0.01,,,0.03,meteohub,2013-05-28 10:43:00,
2013-05-28 03:48:00,55.0,54.0,30.02,SW,226,3.0,5.0,96,0.01,,,0.03,meteohub,2013-05-28 10:48:00,
2013-05-28 03:53:00,55.0,54.0,30.02,SW,226,1.0,5.0,96,0.01,,,0.03,meteohub,2013-05-28 10:53:00,
2013-05-28 03:58:00,55.0,54.0,30.02,SW,224,2.0,5.0,96,0.01,,,0.03,meteohub,2013-05-28 10:58:00,
2013-05-28 04:03:00,55.2,54.1,30.02,SW,226,3.0,5.0,96,0.01,,,0.03,meteohub,2013-05-28 11:03:00,
2013-05-28 04:08:00,55.0,54.0,30.02,SSW,205,3.0,4.0,96,0.01,,,0.03,meteohub,2013-05-28 11:08:00,
2013-05-28 04:13:00,55.0,54.0,30.02,SSW,202,3.0,5.0,96,0.01,,,0.03,meteohub,2013-05-28 11:13:00,
2013-05-28 04:18:00,55.0,54.0,30.02,SSW,206,0.0,6.0,96,0.00,,,0.03,meteohub,2013-05-28 11:18:00,
2013-05-28 04:23:00,55.0,54.0,30.02,SSW,204,0.0,6.0,96,0.00,,,0.03,meteohub,2013-05-28 11:23:00,
2013-05-28 04:28:00,55.0,54.0,30.02,SSW,203,3.0,6.0,96,0.00,,,0.03,meteohub,2013-05-28 11:28:00,
2013-05-28 04:33:00,54.9,53.8,30.02,SSW,204,4.0,4.0,96,0.00,,,0.03,meteohub,2013-05-28 11:33:00,
2013-05-28 04:38:00,54.9,53.8,30.02,North,359,1.0,4.0,96,0.00,,,0.03,meteohub,2013-05-28 11:38:00,
2013-05-28 04:43:00,54.9,53.8,30.02,South,177,2.0,4.0,96,0.00,,,0.03,meteohub,2013-05-28 11:43:00,
2013-05-28 04:48:00,54.9,53.8,30.02,South,171,5.0,5.0,96,0.00,,,0.03,meteohub,2013-05-28 11:48:00,
2013-05-28 04:53:00,54.9,53.8,30.01,North,359,5.0,5.0,96,0.00,,,0.03,meteohub,2013-05-28 11:53:00,
2013-05-28 04:58:00,55.0,54.0,30.01,North,359,4.0,5.0,96,0.00,,,0.03,meteohub,2013-05-28 11:58:00,
2013-05-28 05:03:00,55.0,54.0,30.01,North,359,3.0,5.0,96,0.00,,,0.03,meteohub,2013-05-28 12:03:00,
2013-05-28 05:08:00,55.0,54.0,30.01,SSE,165,4.0,8.0,96,0.00,,,0.03,meteohub,2013-05-28 12:08:00,
2013-05-28 05:13:00,54.9,53.8,30.01,South,191,3.0,8.0,96,0.00,,,0.03,meteohub,2013-05-28 12:13:00,
2013-05-28 05:18:00,54.9,53.8,30.01,South,183,0.0,8.0,96,0.00,,,0.03,meteohub,2013-05-28 12:18:00,
2013-05-28 05:23:00,54.9,53.8,30.02,South,179,1.0,8.0,96,0.00,,,0.03,meteohub,2013-05-28 12:23:00,
2013-05-28 05:28:00,54.7,53.6,30.02,North,359,2.0,7.0,96,0.00,,,0.03,meteohub,2013-05-28 12:28:00,
2013-05-28 05:33:00,54.7,53.6,30.02,South,186,4.0,6.0,96,0.00,,,0.03,meteohub,2013-05-28 12:33:00,
2013-05-28 05:39:00,54.7,53.6,30.01,SSE,166,2.0,6.0,96,0.00,,,0.03,meteohub,2013-05-28 12:39:00,
2013-05-28 05:44:00,54.7,53.6,30.01,SSE,165,2.0,7.0,96,0.00,,,0.03,meteohub,2013-05-28 12:44:00,
2013-05-28 05:49:00,54.5,53.4,30.02,South,191,4.0,7.0,96,0.00,,,0.03,meteohub,2013-05-28 12:49:00,
2013-05-28 05:54:00,54.3,53.2,30.02,South,179,4.0,7.0,96,0.00,,,0.03,meteohub,2013-05-28 12:54:00,
2013-05-28 05:59:00,54.5,53.4,30.02,South,174,3.0,7.0,96,0.00,,,0.03,meteohub,2013-05-28 12:59:00,
2013-05-28 06:04:00,54.3,53.2,30.02,South,177,3.0,7.0,96,0.00,,,0.03,meteohub,2013-05-28 13:04:00,
2013-05-28 06:09:00,54.3,53.2,30.01,SSE,156,3.0,6.0,96,0.00,,,0.03,meteohub,2013-05-28 13:09:00,
2013-05-28 06:14:00,54.1,53.1,30.01,SSE,154,6.0,6.0,96,0.00,,,0.03,meteohub,2013-05-28 13:14:00,
2013-05-28 06:19:00,54.0,52.9,30.01,SSE,159,4.0,9.0,96,0.00,,,0.03,meteohub,2013-05-28 13:19:00,
2013-05-28 06:24:00,54.0,52.9,30.02,North,359,7.0,9.0,96,0.00,,,0.03,meteohub,2013-05-28 13:24:00,
2013-05-28 06:29:00,54.0,52.9,30.02,South,181,2.0,9.0,96,0.00,,,0.03,meteohub,2013-05-28 13:29:00,
2013-05-28 06:34:00,54.0,52.9,30.01,South,183,4.0,8.0,96,0.00,,,0.03,meteohub,2013-05-28 13:34:00,
2013-05-28 06:39:00,54.0,52.9,30.02,SSW,204,4.0,8.0,96,0.00,,,0.03,meteohub,2013-05-28 13:39:00,
2013-05-28 06:44:00,54.0,52.9,30.02,North,359,4.0,8.0,96,0.00,,,0.03,meteohub,2013-05-28 13:44:00,
2013-05-28 06:49:00,54.0,52.9,30.01,SSE,159,5.0,9.0,96,0.00,,,0.03,meteohub,2013-05-28 13:49:00,
2013-05-28 06:54:00,54.0,52.9,30.01,South,171,4.0,9.0,96,0.00,,,0.03,meteohub,2013-05-28 13:54:00,
2013-05-28 06:59:00,54.1,53.1,30.02,SSE,154,2.0,9.0,96,0.00,,,0.03,meteohub,2013-05-28 13:59:00,
2013-05-28 07:04:00,54.3,53.4,30.03,SSE,156,2.0,8.0,97,0.00,,,0.03,meteohub,2013-05-28 14:04:00,
2013-05-28 07:09:00,54.7,53.8,30.03,SSE,160,5.0,8.0,97,0.00,,,0.03,meteohub,2013-05-28 14:09:00,
2013-05-28 07:14:00,54.7,53.8,30.03,SSW,211,2.0,7.0,97,0.00,,,0.03,meteohub,2013-05-28 14:14:00,
2013-05-28 07:19:00,54.5,53.4,30.03,SSE,168,4.0,8.0,96,0.00,,,0.03,meteohub,2013-05-28 14:19:00,
2013-05-28 07:24:00,54.7,53.8,30.03,South,169,5.0,8.0,97,0.00,,,0.03,meteohub,2013-05-28 14:24:00,
2013-05-28 07:29:00,54.7,53.8,30.03,SSW,199,5.0,8.0,97,0.00,,,0.03,meteohub,2013-05-28 14:29:00,
2013-05-28 07:34:00,54.7,53.8,30.03,SSW,195,4.0,8.0,97,0.00,,,0.03,meteohub,2013-05-28 14:34:00,
2013-05-28 07:39:00,54.7,53.8,30.03,SSW,193,3.0,8.0,97,0.00,,,0.03,meteohub,2013-05-28 14:39:00,
2013-05-28 07:44:00,54.7,53.8,30.02,SSE,155,4.0,8.0,97,0.00,,,0.03,meteohub,2013-05-28 14:44:00,
2013-05-28 07:49:00,54.7,53.6,30.02,SSE,160,6.0,9.0,96,0.00,,,0.03,meteohub,2013-05-28 14:49:00,
2013-05-28 07:54:00,54.7,53.8,30.03,South,170,5.0,9.0,97,0.00,,,0.03,meteohub,2013-05-28 14:54:00,
2013-05-28 07:59:00,54.9,54.0,30.03,North,359,5.0,9.0,97,0.00,,,0.03,meteohub,2013-05-28 14:59:00,
2013-05-28 08:04:00,54.9,54.0,30.03,SSE,162,1.0,9.0,97,0.00,,,0.03,meteohub,2013-05-28 15:04:00,
2013-05-28 08:09:00,54.9,54.0,30.03,South,173,4.0,8.0,97,0.00,,,0.03,meteohub,2013-05-28 15:09:00,
2013-05-28 08:14:00,54.7,53.6,30.03,SSE,162,6.0,8.0,96,0.00,,,0.03,meteohub,2013-05-28 15:14:00,
2013-05-28 08:20:00,54.9,54.0,30.03,SSE,162,6.0,8.0,97,0.00,,,0.03,meteohub,2013-05-28 15:20:00,
2013-05-28 08:25:00,54.9,54.0,30.02,SSE,155,3.0,8.0,97,0.00,,,0.03,meteohub,2013-05-28 15:25:00,
2013-05-28 08:30:00,55.0,54.1,30.02,South,180,7.0,8.0,97,0.00,,,0.03,meteohub,2013-05-28 15:30:00,
2013-05-28 08:35:00,55.2,54.3,30.02,SSE,164,4.0,8.0,97,0.00,,,0.03,meteohub,2013-05-28 15:35:00,
2013-05-28 08:40:00,55.4,54.5,30.03,SSW,195,4.0,8.0,97,0.00,,,0.03,meteohub,2013-05-28 15:40:00,
2013-05-28 08:45:00,55.4,54.5,30.03,South,180,4.0,8.0,97,0.00,,,0.03,meteohub,2013-05-28 15:45:00,
2013-05-28 08:50:00,55.6,54.7,30.03,SSW,202,6.0,8.0,97,0.00,,,0.03,meteohub,2013-05-28 15:50:00,
2013-05-28 08:55:00,55.9,55.0,30.03,South,182,4.0,7.0,97,0.00,,,0.03,meteohub,2013-05-28 15:55:00,
2013-05-28 09:00:00,56.1,55.0,30.03,South,173,4.0,7.0,96,0.00,,,0.03,meteohub,2013-05-28 16:00:00,
2013-05-28 09:05:00,56.5,55.6,30.03,SSW,193,5.0,7.0,97,0.00,,,0.03,meteohub,2013-05-28 16:05:00,
2013-05-28 09:10:00,56.5,55.4,30.04,SSW,197,4.0,9.0,96,0.00,,,0.03,meteohub,2013-05-28 16:10:00,
2013-05-28 09:15:00,56.7,55.6,30.04,South,186,5.0,9.0,96,0.00,,,0.03,meteohub,2013-05-28 16:15:00,
2013-05-28 09:20:00,56.7,55.6,30.04,SSW,195,8.0,8.0,96,0.00,,,0.03,meteohub,2013-05-28 16:20:00,
2013-05-28 09:25:00,56.5,55.0,30.04,SSW,208,7.0,10.0,95,0.00,,,0.03,meteohub,2013-05-28 16:25:00,
2013-05-28 09:30:00,56.3,54.9,30.04,South,189,5.0,10.0,95,0.00,,,0.03,meteohub,2013-05-28 16:30:00,
2013-05-28 09:35:00,56.7,55.2,30.04,South,184,6.0,11.0,95,0.00,,,0.03,meteohub,2013-05-28 16:35:00,
2013-05-28 09:40:00,56.8,55.4,30.04,South,187,4.0,9.0,95,0.00,,,0.03,meteohub,2013-05-28 16:40:00,
2013-05-28 09:45:00,57.6,56.1,30.04,South,181,4.0,8.0,95,0.00,,,0.03,meteohub,2013-05-28 16:45:00,
2013-05-28 09:50:00,57.9,56.1,30.04,South,180,9.0,9.0,94,0.00,,,0.03,meteohub,2013-05-28 16:50:00,
2013-05-28 09:55:00,58.3,56.5,30.04,South,182,7.0,9.0,94,0.00,,,0.03,meteohub,2013-05-28 16:55:00,
2013-05-28 10:00:00,58.3,55.9,30.04,SSW,207,2.0,10.0,92,0.00,,,0.03,meteohub,2013-05-28 17:00:00,
2013-05-28 10:05:00,58.6,56.3,30.04,South,174,8.0,10.0,92,0.00,,,0.03,meteohub,2013-05-28 17:05:00,
2013-05-28 10:10:00,58.8,56.1,30.04,SSW,204,4.0,10.0,91,0.00,,,0.03,meteohub,2013-05-28 17:10:00,
2013-05-28 10:15:00,59.0,56.3,30.04,SSW,209,4.0,9.0,91,0.00,,,0.03,meteohub,2013-05-28 17:15:00,
2013-05-28 10:20:00,59.0,56.1,30.04,SSW,200,3.0,9.0,90,0.00,,,0.03,meteohub,2013-05-28 17:20:00,
2013-05-28 10:26:00,59.0,56.1,30.04,South,182,2.0,9.0,90,0.00,,,0.03,meteohub,2013-05-28 17:26:00,
2013-05-28 10:31:00,58.8,55.9,30.04,SSW,204,5.0,8.0,90,0.00,,,0.03,meteohub,2013-05-28 17:31:00,
2013-05-28 10:36:00,58.6,55.9,30.04,South,181,5.0,8.0,91,0.00,,,0.03,meteohub,2013-05-28 17:36:00,
2013-05-28 10:41:00,58.5,55.8,30.04,SSE,158,5.0,8.0,91,0.00,,,0.03,meteohub,2013-05-28 17:41:00,
2013-05-28 10:46:00,58.3,55.6,30.04,South,173,6.0,8.0,91,0.00,,,0.03,meteohub,2013-05-28 17:46:00,
2013-05-28 10:51:00,58.5,56.1,30.04,SSW,204,4.0,8.0,92,0.00,,,0.03,meteohub,2013-05-28 17:51:00,
2013-05-28 10:56:00,58.6,56.3,30.04,South,191,4.0,8.0,92,0.00,,,0.03,meteohub,2013-05-28 17:56:00,
2013-05-28 11:01:00,58.8,56.1,30.04,SE,143,6.0,8.0,91,0.00,,,0.03,meteohub,2013-05-28 18:01:00,
2013-05-28 11:06:00,58.8,56.1,30.04,SSE,154,1.0,8.0,91,0.00,,,0.03,meteohub,2013-05-28 18:06:00,
2013-05-28 11:11:00,59.0,56.1,30.04,SSE,162,3.0,8.0,90,0.00,,,0.03,meteohub,2013-05-28 18:11:00,
2013-05-28 11:16:00,59.2,56.5,30.04,South,170,3.0,7.0,91,0.00,,,0.03,meteohub,2013-05-28 18:16:00,
2013-05-28 11:21:00,59.4,56.7,30.04,South,176,4.0,8.0,91,0.00,,,0.03,meteohub,2013-05-28 18:21:00,
2013-05-28 11:26:00,59.5,56.8,30.04,SE,141,3.0,8.0,91,0.00,,,0.03,meteohub,2013-05-28 18:26:00,
2013-05-28 11:31:00,59.9,57.0,30.04,SE,141,4.0,8.0,90,0.00,,,0.03,meteohub,2013-05-28 18:31:00,
2013-05-28 11:36:00,60.4,57.2,30.04,South,177,4.0,7.0,89,0.00,,,0.03,meteohub,2013-05-28 18:36:00,
2013-05-28 11:41:00,61.0,57.7,30.04,South,187,6.0,7.0,89,0.00,,,0.03,meteohub,2013-05-28 18:41:00,
2013-05-28 11:46:00,61.7,57.4,30.04,SSE,165,6.0,7.0,86,0.00,,,0.03,meteohub,2013-05-28 18:46:00,
2013-05-28 11:51:00,62.2,57.4,30.04,South,176,6.0,9.0,84,0.00,,,0.03,meteohub,2013-05-28 18:51:00,
2013-05-28 11:56:00,63.0,57.4,30.04,SSW,210,5.0,9.0,82,0.00,,,0.03,meteohub,2013-05-28 18:56:00,
2013-05-28 12:01:00,63.0,57.4,30.04,SSW,207,3.0,9.0,82,0.00,,,0.03,meteohub,2013-05-28 19:01:00,
2013-05-28 12:06:00,63.1,57.6,30.04,South,170,2.0,9.0,82,0.00,,,0.03,meteohub,2013-05-28 19:06:00,
2013-05-28 12:11:00,63.9,57.6,30.04,SSE,163,3.0,9.0,80,0.00,,,0.03,meteohub,2013-05-28 19:11:00,
2013-05-28 12:16:00,63.9,57.6,30.03,SSW,204,7.0,12.0,80,0.00,,,0.03,meteohub,2013-05-28 19:16:00,
2013-05-28 12:21:00,63.7,57.4,30.03,SW,230,8.0,12.0,80,0.00,,,0.03,meteohub,2013-05-28 19:21:00,
2013-05-28 12:26:00,64.0,57.7,30.03,South,170,5.0,12.0,80,0.00,,,0.03,meteohub,2013-05-28 19:26:00,
2013-05-28 12:31:00,64.2,57.6,30.03,SW,222,6.0,12.0,79,0.00,,,0.03,meteohub,2013-05-28 19:31:00,
2013-05-28 12:36:00,63.9,57.2,30.03,SSW,210,10.0,13.0,79,0.00,,,0.03,meteohub,2013-05-28 19:36:00,
2013-05-28 12:41:00,63.3,56.7,30.03,SSW,199,6.0,13.0,79,0.00,,,0.03,meteohub,2013-05-28 19:41:00,
2013-05-28 12:46:00,63.7,57.4,30.03,SW,214,6.0,13.0,80,0.00,,,0.03,meteohub,2013-05-28 19:46:00,
2013-05-28 12:51:00,63.7,57.0,30.03,SSW,201,10.0,12.0,79,0.00,,,0.03,meteohub,2013-05-28 19:51:00,
2013-05-28 12:56:00,63.0,56.7,30.03,South,174,12.0,12.0,80,0.00,,,0.03,meteohub,2013-05-28 19:56:00,
2013-05-28 13:01:00,63.0,56.3,30.02,SSW,211,8.0,12.0,79,0.00,,,0.03,meteohub,2013-05-28 20:01:00,
2013-05-28 13:06:00,62.4,56.5,30.02,SSW,212,10.0,13.0,81,0.00,,,0.03,meteohub,2013-05-28 20:06:00,
2013-05-28 13:12:00,62.1,56.5,30.02,South,180,6.0,13.0,82,0.00,,,0.03,meteohub,2013-05-28 20:12:00,
2013-05-28 13:17:00,62.4,56.5,30.02,SSW,197,8.0,13.0,81,0.00,,,0.03,meteohub,2013-05-28 20:17:00,
2013-05-28 13:22:00,62.2,56.3,30.02,SSW,206,7.0,13.0,81,0.00,,,0.03,meteohub,2013-05-28 20:22:00,
2013-05-28 13:27:00,63.1,56.5,30.03,SW,222,8.0,12.0,79,0.00,,,0.03,meteohub,2013-05-28 20:27:00,
2013-05-28 13:32:00,63.7,56.7,30.02,SSW,193,6.0,12.0,78,0.00,,,0.03,meteohub,2013-05-28 20:32:00,
2013-05-28 13:37:00,63.5,56.1,30.03,SW,217,7.0,10.0,77,0.00,,,0.03,meteohub,2013-05-28 20:37:00,
2013-05-28 13:42:00,62.8,56.1,30.02,SSW,196,7.0,12.0,79,0.00,,,0.03,meteohub,2013-05-28 20:42:00,
2013-05-28 13:47:00,63.3,56.7,30.02,South,174,7.0,12.0,79,0.00,,,0.03,meteohub,2013-05-28 20:47:00,
2013-05-28 13:52:00,63.5,56.1,30.02,SSW,206,8.0,12.0,77,0.00,,,0.03,meteohub,2013-05-28 20:52:00,
2013-05-28 13:57:00,63.7,56.7,30.01,South,170,10.0,12.0,78,0.00,,,0.03,meteohub,2013-05-28 20:57:00,
2013-05-28 14:02:00,64.0,56.7,30.02,SSW,197,8.0,12.0,77,0.00,,,0.03,meteohub,2013-05-28 21:02:00,
2013-05-28 14:07:00,63.9,56.5,30.01,SW,214,11.0,12.0,77,0.00,,,0.03,meteohub,2013-05-28 21:07:00,
2013-05-28 14:12:00,63.9,56.5,30.01,SSW,197,10.0,14.0,77,0.00,,,0.03,meteohub,2013-05-28 21:12:00,
2013-05-28 14:17:00,64.0,56.7,30.01,SSE,168,8.0,14.0,77,0.00,,,0.03,meteohub,2013-05-28 21:17:00,
2013-05-28 14:22:00,64.4,56.3,30.01,SSW,208,7.0,13.0,75,0.00,,,0.03,meteohub,2013-05-28 21:22:00,
2013-05-28 14:27:00,64.4,56.3,30.01,South,185,8.0,12.0,75,0.00,,,0.03,meteohub,2013-05-28 21:27:00,
2013-05-28 14:32:00,64.4,56.3,30.01,SSW,193,5.0,12.0,75,0.00,,,0.03,meteohub,2013-05-28 21:32:00,
2013-05-28 14:37:00,64.4,56.3,30.01,South,187,8.0,12.0,75,0.00,,,0.03,meteohub,2013-05-28 21:37:00,
2013-05-28 14:42:00,64.0,55.9,30.01,SSW,206,7.0,12.0,75,0.00,,,0.03,meteohub,2013-05-28 21:42:00,
2013-05-28 14:47:00,64.6,56.1,30.01,SSW,199,7.0,11.0,74,0.00,,,0.03,meteohub,2013-05-28 21:47:00,
2013-05-28 14:52:00,64.8,55.9,30.01,South,182,10.0,11.0,73,0.00,,,0.03,meteohub,2013-05-28 21:52:00,
2013-05-28 14:57:00,65.1,56.3,30.02,SSW,197,9.0,11.0,73,0.00,,,0.03,meteohub,2013-05-28 21:57:00,
2013-05-28 15:02:00,65.1,55.9,30.02,SSW,198,7.0,11.0,72,0.00,,,0.03,meteohub,2013-05-28 22:02:00,
2013-05-28 15:07:00,64.9,56.1,30.02,South,191,4.0,12.0,73,0.00,,,0.03,meteohub,2013-05-28 22:07:00,
2013-05-28 15:12:00,65.5,56.7,30.02,South,173,9.0,12.0,73,0.00,,,0.03,meteohub,2013-05-28 22:12:00,
2013-05-28 15:17:00,65.3,55.6,30.02,SSE,162,5.0,12.0,71,0.00,,,0.03,meteohub,2013-05-28 22:17:00,
2013-05-28 15:22:00,65.1,55.9,30.01,SSW,207,6.0,13.0,72,0.00,,,0.03,meteohub,2013-05-28 22:22:00,
2013-05-28 15:27:00,65.8,56.1,30.01,South,190,8.0,13.0,71,0.00,,,0.03,meteohub,2013-05-28 22:27:00,
2013-05-28 15:32:00,65.8,56.1,30.01,South,176,4.0,11.0,71,0.00,,,0.03,meteohub,2013-05-28 22:32:00,
2013-05-28 15:37:00,66.9,56.5,30.00,South,176,7.0,11.0,69,0.00,,,0.03,meteohub,2013-05-28 22:37:00,
2013-05-28 15:42:00,66.9,56.5,30.00,SSW,207,7.0,11.0,69,0.00,,,0.03,meteohub,2013-05-28 22:42:00,
2013-05-28 15:47:00,66.6,56.1,30.00,SSE,155,6.0,12.0,69,0.00,,,0.03,meteohub,2013-05-28 22:47:00,
2013-05-28 15:53:00,66.9,56.5,30.00,SSW,202,7.0,12.0,69,0.00,,,0.03,meteohub,2013-05-28 22:53:00,
2013-05-28 15:58:00,66.6,56.1,30.00,South,185,8.0,12.0,69,0.00,,,0.03,meteohub,2013-05-28 22:58:00,
2013-05-28 16:03:00,65.7,55.6,30.00,South,187,7.0,11.0,70,0.00,,,0.03,meteohub,2013-05-28 23:03:00,
2013-05-28 16:08:00,65.7,56.3,30.00,South,184,8.0,11.0,72,0.00,,,0.03,meteohub,2013-05-28 23:08:00,
2013-05-28 16:13:00,65.8,55.8,29.99,South,189,9.0,11.0,70,0.00,,,0.03,meteohub,2013-05-28 23:13:00,
2013-05-28 16:18:00,65.7,55.9,29.99,South,188,10.0,11.0,71,0.00,,,0.03,meteohub,2013-05-28 23:18:00,
2013-05-28 16:23:00,65.1,56.3,29.99,SSW,192,9.0,11.0,73,0.00,,,0.03,meteohub,2013-05-28 23:23:00,
2013-05-28 16:28:00,65.1,55.9,29.99,South,183,6.0,12.0,72,0.00,,,0.03,meteohub,2013-05-28 23:28:00,
2013-05-28 16:33:00,65.7,55.9,29.99,South,187,9.0,12.0,71,0.00,,,0.03,meteohub,2013-05-28 23:33:00,
2013-05-28 16:38:00,65.5,56.3,29.99,SSW,203,7.0,12.0,72,0.00,,,0.03,meteohub,2013-05-28 23:38:00,
2013-05-28 16:43:00,65.8,55.8,29.99,South,189,8.0,11.0,70,0.00,,,0.03,meteohub,2013-05-28 23:43:00,
2013-05-28 16:48:00,66.0,55.9,29.99,South,186,7.0,11.0,70,0.00,,,0.03,meteohub,2013-05-28 23:48:00,
2013-05-28 16:53:00,66.4,56.3,29.99,SSE,168,5.0,10.0,70,0.00,,,0.03,meteohub,2013-05-28 23:53:00,
2013-05-28 16:58:00,66.0,56.3,29.99,SSW,197,6.0,10.0,71,0.00,,,0.03,meteohub,2013-05-28 23:58:00,
2013-05-28 17:03:00,65.1,55.4,29.99,SSW,195,7.0,10.0,71,0.00,,,0.03,meteohub,2013-05-29 00:03:00,
2013-05-28 17:08:00,64.4,55.6,29.99,South,188,7.0,12.0,73,0.00,,,0.00,meteohub,2013-05-29 00:08:00,
2013-05-28 17:13:00,64.0,55.6,29.99,South,189,8.0,12.0,74,0.00,,,0.00,meteohub,2013-05-29 00:13:00,
2013-05-28 17:18:00,63.9,55.4,29.98,South,188,3.0,12.0,74,0.00,,,0.00,meteohub,2013-05-29 00:18:00,
2013-05-28 17:23:00,64.2,55.8,29.98,SSW,206,5.0,10.0,74,0.00,,,0.00,meteohub,2013-05-29 00:23:00,
2013-05-28 17:28:00,64.2,55.8,29.98,South,183,6.0,10.0,74,0.00,,,0.00,meteohub,2013-05-29 00:28:00,
2013-05-28 17:33:00,64.8,55.9,29.98,SSW,200,5.0,10.0,73,0.00,,,0.00,meteohub,2013-05-29 00:33:00,
2013-05-28 17:38:00,65.1,55.4,29.97,SSW,208,5.0,10.0,71,0.00,,,0.00,meteohub,2013-05-29 00:38:00,
2013-05-28 17:43:00,65.1,55.4,29.97,SSW,199,3.0,10.0,71,0.00,,,0.00,meteohub,2013-05-29 00:43:00,
2013-05-28 17:48:00,64.8,54.7,29.97,ESE,116,7.0,9.0,70,0.00,,,0.00,meteohub,2013-05-29 00:48:00,
2013-05-28 17:53:00,64.6,54.5,29.97,SE,135,7.0,11.0,70,0.00,,,0.00,meteohub,2013-05-29 00:53:00,
2013-05-28 17:58:00,64.6,55.4,29.97,South,181,7.0,14.0,72,0.00,,,0.00,meteohub,2013-05-29 00:58:00,
2013-05-28 18:03:00,64.9,55.8,29.97,SSE,160,3.0,14.0,72,0.00,,,0.00,meteohub,2013-05-29 01:03:00,
2013-05-28 18:08:00,64.9,55.4,29.97,SE,124,4.0,14.0,71,0.00,,,0.00,meteohub,2013-05-29 01:08:00,
2013-05-28 18:13:00,64.8,54.7,29.97,South,177,4.0,9.0,70,0.00,,,0.00,meteohub,2013-05-29 01:13:00,
2013-05-28 18:18:00,64.6,55.0,29.98,SE,133,6.0,9.0,71,0.00,,,0.00,meteohub,2013-05-29 01:18:00,
2013-05-28 18:23:00,64.2,54.7,29.98,SE,143,3.0,9.0,71,0.00,,,0.00,meteohub,2013-05-29 01:23:00,
2013-05-28 18:28:00,64.4,54.9,29.98,SE,138,4.0,9.0,71,0.00,,,0.00,meteohub,2013-05-29 01:28:00,
2013-05-28 18:33:00,64.8,55.2,29.97,SE,126,6.0,9.0,71,0.00,,,0.00,meteohub,2013-05-29 01:33:00,
2013-05-28 18:39:00,64.8,54.7,29.97,ESE,115,9.0,9.0,70,0.00,,,0.00,meteohub,2013-05-29 01:39:00,
2013-05-28 18:44:00,64.4,55.2,29.97,East,85,7.0,10.0,72,0.00,,,0.00,meteohub,2013-05-29 01:44:00,
2013-05-28 18:49:00,64.0,55.2,29.97,SE,129,2.0,10.0,73,0.00,,,0.00,meteohub,2013-05-29 01:49:00,
2013-05-28 18:54:00,63.9,55.4,29.97,ESE,120,8.0,10.0,74,0.00,,,0.00,meteohub,2013-05-29 01:54:00,
2013-05-28 18:59:00,63.3,55.2,29.97,SE,125,2.0,11.0,75,0.00,,,0.00,meteohub,2013-05-29 01:59:00,
2013-05-28 19:04:00,63.1,55.4,29.97,SE,131,2.0,11.0,76,0.00,,,0.00,meteohub,2013-05-29 02:04:00,
2013-05-28 19:09:00,63.3,55.6,29.97,SE,135,0.0,9.0,76,0.00,,,0.00,meteohub,2013-05-29 02:09:00,
2013-05-28 19:14:00,63.7,55.6,29.97,SE,131,3.0,9.0,75,0.00,,,0.00,meteohub,2013-05-29 02:14:00,
2013-05-28 19:19:00,63.9,55.4,29.98,SE,137,0.0,8.0,74,0.00,,,0.00,meteohub,2013-05-29 02:19:00,
2013-05-28 19:24:00,64.4,54.9,29.99,NW,305,8.0,8.0,71,0.00,,,0.00,meteohub,2013-05-29 02:24:00,
2013-05-28 19:29:00,64.9,52.5,29.98,NW,318,12.0,12.0,64,0.00,,,0.00,meteohub,2013-05-29 02:29:00,
2013-05-28 19:34:00,64.2,52.2,29.98,NW,320,4.0,11.0,65,0.00,,,0.00,meteohub,2013-05-29 02:34:00,
2013-05-28 19:39:00,63.9,51.8,29.98,WNW,295,10.0,12.0,65,0.00,,,0.00,meteohub,2013-05-29 02:39:00,
2013-05-28 19:44:00,63.9,52.3,29.98,WNW,294,10.0,13.0,66,0.00,,,0.00,meteohub,2013-05-29 02:44:00,
2013-05-28 19:49:00,63.3,51.8,29.98,WNW,283,14.0,15.0,66,0.00,,,0.00,meteohub,2013-05-29 02:49:00,
2013-05-28 19:54:00,63.1,51.3,29.98,WNW,286,7.0,15.0,65,0.00,,,0.00,meteohub,2013-05-29 02:54:00,
2013-05-28 19:59:00,62.8,51.3,29.98,NW,321,5.0,15.0,66,0.00,,,0.00,meteohub,2013-05-29 02:59:00,
2013-05-28 20:04:00,62.4,51.3,29.99,WNW,298,5.0,15.0,67,0.00,,,0.00,meteohub,2013-05-29 03:04:00,
2013-05-28 20:09:00,62.2,51.1,29.99,WNW,301,4.0,12.0,67,0.00,,,0.00,meteohub,2013-05-29 03:09:00,
2013-05-28 20:14:00,62.1,50.5,29.99,NW,313,6.0,12.0,66,0.00,,,0.00,meteohub,2013-05-29 03:14:00,
2013-05-28 20:19:00,61.7,50.7,29.99,NW,316,7.0,11.0,67,0.00,,,0.00,meteohub,2013-05-29 03:19:00,
2013-05-28 20:24:00,61.5,50.9,29.99,NW,318,2.0,11.0,68,0.00,,,0.00,meteohub,2013-05-29 03:24:00,
2013-05-28 20:29:00,61.7,50.7,29.99,WNW,297,7.0,11.0,67,0.00,,,0.00,meteohub,2013-05-29 03:29:00,
2013-05-28 20:34:00,61.5,50.9,29.99,NW,305,6.0,10.0,68,0.00,,,0.00,meteohub,2013-05-29 03:34:00,
2013-05-28 20:39:00,61.5,50.9,29.98,West,280,5.0,12.0,68,0.00,,,0.00,meteohub,2013-05-29 03:39:00,
2013-05-28 20:44:00,61.2,50.2,29.99,WNW,301,10.0,12.0,67,0.00,,,0.00,meteohub,2013-05-29 03:44:00,
2013-05-28 20:49:00,60.8,50.2,29.99,WNW,303,10.0,14.0,68,0.00,,,0.00,meteohub,2013-05-29 03:49:00,
2013-05-28 20:54:00,60.6,50.0,29.99,WNW,282,10.0,15.0,68,0.00,,,0.00,meteohub,2013-05-29 03:54:00,
2013-05-28 21:00:00,60.3,50.0,29.99,NW,318,7.0,15.0,69,0.00,,,0.00,meteohub,2013-05-29 04:00:00,
2013-05-28 21:01:00,60.1,50.2,29.99,NW,305,10.0,15.0,70,0.00,,,0.00,meteohub,2013-05-29 04:01:00,
2013-05-28 21:02:00,60.1,50.2,29.99,WNW,303,11.0,15.0,70,0.00,,,0.00,meteohub,2013-05-29 04:02:00,
2013-05-28 21:03:00,59.9,50.2,29.99,NW,316,3.0,15.0,70,0.00,,,0.00,meteohub,2013-05-29 04:03:00,
2013-05-28 21:04:00,59.7,50.4,29.99,WNW,301,9.0,15.0,71,0.00,,,0.00,meteohub,2013-05-29 04:04:00,
2013-05-28 21:09:00,59.9,50.5,29.99,WNW,288,9.0,15.0,71,0.00,,,0.00,meteohub,2013-05-29 04:09:00,
2013-05-28 21:14:00,59.9,50.2,29.99,West,271,7.0,15.0,70,0.00,,,0.00,meteohub,2013-05-29 04:14:00,
2013-05-28 21:19:00,60.1,50.2,29.99,WNW,285,10.0,14.0,70,0.00,,,0.00,meteohub,2013-05-29 04:19:00,
2013-05-28 21:24:00,60.1,50.2,29.99,WNW,295,9.0,14.0,70,0.00,,,0.00,meteohub,2013-05-29 04:24:00,
2013-05-28 21:29:00,60.1,50.2,29.99,WNW,290,10.0,15.0,70,0.00,,,0.00,meteohub,2013-05-29 04:29:00,
2013-05-28 21:34:00,59.5,49.8,29.99,WNW,287,9.0,15.0,70,0.00,,,0.00,meteohub,2013-05-29 04:34:00,
2013-05-28 21:39:00,59.5,50.2,29.99,WNW,300,10.0,15.0,71,0.00,,,0.00,meteohub,2013-05-29 04:39:00,
2013-05-28 21:44:00,59.5,50.2,29.99,WNW,297,1.0,12.0,71,0.00,,,0.00,meteohub,2013-05-29 04:44:00,
2013-05-28 21:49:00,59.7,50.0,29.98,WNW,300,5.0,11.0,70,0.00,,,0.00,meteohub,2013-05-29 04:49:00,
2013-05-28 21:54:00,59.7,50.0,29.98,WNW,293,1.0,10.0,70,0.00,,,0.00,meteohub,2013-05-29 04:54:00,
2013-05-28 21:59:00,59.7,50.0,29.98,NW,307,1.0,10.0,70,0.00,,,0.00,meteohub,2013-05-29 04:59:00,
2013-05-28 22:04:00,59.5,49.8,29.97,NW,319,0.0,8.0,70,0.00,,,0.00,meteohub,2013-05-29 05:04:00,
2013-05-28 22:09:00,59.4,50.0,29.97,NW,319,0.0,6.0,71,0.00,,,0.00,meteohub,2013-05-29 05:09:00,
2013-05-28 22:14:00,59.2,49.8,29.97,NW,308,2.0,5.0,71,0.00,,,0.00,meteohub,2013-05-29 05:14:00,
2013-05-28 22:19:00,59.2,49.8,29.97,NW,308,0.0,3.0,71,0.00,,,0.00,meteohub,2013-05-29 05:19:00,
2013-05-28 22:24:00,59.4,49.6,29.97,NW,308,0.0,3.0,70,0.00,,,0.00,meteohub,2013-05-29 05:24:00,
2013-05-28 22:29:00,59.5,49.3,29.98,NW,312,0.0,3.0,69,0.00,,,0.00,meteohub,2013-05-29 05:29:00,
2013-05-28 22:34:00,59.7,49.1,29.99,WNW,299,4.0,4.0,68,0.00,,,0.00,meteohub,2013-05-29 05:34:00,
2013-05-28 22:39:00,60.1,49.1,29.99,WNW,286,3.0,4.0,67,0.00,,,0.00,meteohub,2013-05-29 05:39:00,
2013-05-28 22:44:00,59.7,51.8,29.99,SW,224,7.0,7.0,75,0.00,,,0.00,meteohub,2013-05-29 05:44:00,
2013-05-28 22:49:00,58.8,52.3,30.01,SW,235,11.0,12.0,79,0.00,,,0.00,meteohub,2013-05-29 05:49:00,
2013-05-28 22:54:00,58.3,52.5,30.01,SW,233,9.0,12.0,81,0.00,,,0.00,meteohub,2013-05-29 05:54:00,
2013-05-28 22:59:00,57.7,52.3,30.01,SW,232,8.0,14.0,82,0.00,,,0.00,meteohub,2013-05-29 05:59:00,
2013-05-28 23:04:00,57.6,52.2,30.01,WSW,247,8.0,15.0,82,0.00,,,0.00,meteohub,2013-05-29 06:04:00,
2013-05-28 23:09:00,57.4,52.3,30.01,WSW,237,6.0,15.0,83,0.00,,,0.00,meteohub,2013-05-29 06:09:00,
2013-05-28 23:14:00,57.4,52.0,30.01,SW,224,5.0,15.0,82,0.00,,,0.00,meteohub,2013-05-29 06:14:00,
2013-05-28 23:19:00,57.6,52.2,30.01,SSW,203,4.0,10.0,82,0.00,,,0.00,meteohub,2013-05-29 06:19:00,
2013-05-28 23:24:00,57.7,52.0,30.01,SSW,211,3.0,8.0,81,0.00,,,0.00,meteohub,2013-05-29 06:24:00,
2013-05-28 23:29:00,57.9,51.8,30.00,SSW,193,7.0,8.0,80,0.00,,,0.00,meteohub,2013-05-29 06:29:00,
2013-05-28 23:34:00,58.1,52.0,30.00,SSW,193,3.0,8.0,80,0.00,,,0.00,meteohub,2013-05-29 06:34:00,
2013-05-28 23:39:00,58.3,52.2,30.00,South,191,4.0,7.0,80,0.00,,,0.00,meteohub,2013-05-29 06:39:00,
2013-05-28 23:44:00,58.3,52.2,30.00,SSW,192,2.0,7.0,80,0.00,,,0.00,meteohub,2013-05-29 06:44:00,
2013-05-28 23:49:00,58.5,52.7,30.00,SSW,195,0.0,6.0,81,0.00,,,0.00,meteohub,2013-05-29 06:49:00,
2013-05-28 23:54:00,58.3,52.2,30.00,SW,234,6.0,6.0,80,0.00,,,0.00,meteohub,2013-05-29 06:54:00,
2013-05-28 23:59:00,58.5,52.0,30.00,WSW,242,4.0,6.0,79,0.00,,,0.00,meteohub,2013-05-29 06:59:00,